createdAt,value
2018-12-18T00:01:59.456Z,6.65
2018-12-18T00:04:29.842Z,6.63
2018-12-18T00:09:42.070Z,6.49
2018-12-18T00:12:10.542Z,6.49
2018-12-18T00:14:39.345Z,6.47
2018-12-18T00:17:09.011Z,6.43
2018-12-18T00:19:37.304Z,6.39
2018-12-18T00:22:06.310Z,6.35
2018-12-18T00:24:35.127Z,6.30
2018-12-18T00:29:45.330Z,6.19
2018-12-18T00:32:13.726Z,6.14
2018-12-18T00:37:23.811Z,6.01
2018-12-18T00:39:52.168Z,5.98
2018-12-18T00:42:20.502Z,5.98
2018-12-18T00:44:48.779Z,5.94
2018-12-18T00:47:17.312Z,5.88
2018-12-18T00:49:45.743Z,5.83
2018-12-18T00:52:14.043Z,5.78
2018-12-18T00:54:42.369Z,5.76
2018-12-18T00:57:10.638Z,5.72
2018-12-18T00:59:39.002Z,5.71
2018-12-18T01:02:07.383Z,5.68
2018-12-18T01:04:35.760Z,5.63
2018-12-18T01:07:04.125Z,5.57
2018-12-18T01:09:32.582Z,5.50
2018-12-18T01:12:00.869Z,5.45
2018-12-18T01:14:29.221Z,5.39
2018-12-18T01:16:57.567Z,5.35
2018-12-18T01:19:25.903Z,5.31
2018-12-18T01:21:54.407Z,5.26
2018-12-18T01:24:22.694Z,5.20
2018-12-18T01:26:51.137Z,5.18
2018-12-18T01:29:19.475Z,5.16
2018-12-18T01:31:47.978Z,5.15
2018-12-18T01:34:16.295Z,5.12
2018-12-18T01:36:44.711Z,5.11
2018-12-18T01:39:13.071Z,5.06
2018-12-18T01:41:41.598Z,5.03
2018-12-18T01:44:09.897Z,5.02
2018-12-18T01:46:38.232Z,5.00
2018-12-18T01:49:06.898Z,4.99
2018-12-18T01:54:17.184Z,4.95
2018-12-18T01:56:45.533Z,4.92
2018-12-18T02:01:55.783Z,4.89
2018-12-18T02:04:24.038Z,4.87
2018-12-18T02:06:52.335Z,4.87
2018-12-18T02:09:21.394Z,4.86
2018-12-18T02:11:49.675Z,4.82
2018-12-18T02:14:18.771Z,4.82
2018-12-18T02:16:47.095Z,4.81
2018-12-18T02:21:57.225Z,4.78
2018-12-18T02:24:25.578Z,4.76
2018-12-18T02:29:35.632Z,4.71
2018-12-18T02:32:03.970Z,4.70
2018-12-18T02:34:32.381Z,4.68
2018-12-18T02:37:00.760Z,4.68
2018-12-18T02:39:29.089Z,4.66
2018-12-18T02:41:57.395Z,4.65
2018-12-18T02:44:25.746Z,4.65
2018-12-18T02:46:54.069Z,4.63
2018-12-18T02:49:22.417Z,4.61
2018-12-18T02:51:51.645Z,4.61
2018-12-18T02:54:20.157Z,4.60
2018-12-18T02:56:48.560Z,4.60
2018-12-18T02:59:16.958Z,4.61
2018-12-18T03:01:45.357Z,4.60
2018-12-18T03:04:20.920Z,4.57
2018-12-18T03:06:44.101Z,4.56
2018-12-18T03:09:12.478Z,4.55
2018-12-18T03:14:23.365Z,4.52
2018-12-18T03:16:53.141Z,4.50
2018-12-18T03:19:21.514Z,4.49
2018-12-18T03:21:49.871Z,4.49
2018-12-18T03:24:18.289Z,4.47
2018-12-18T03:29:28.464Z,4.45
2018-12-18T03:34:42.071Z,4.43
2018-12-18T03:37:10.569Z,4.43
2018-12-18T03:39:38.919Z,4.42
2018-12-18T03:42:07.458Z,4.42
2018-12-18T03:44:35.836Z,4.41
2018-12-18T03:47:04.216Z,4.40
2018-12-18T03:49:32.851Z,4.39
2018-12-18T03:52:01.301Z,4.40
2018-12-18T03:54:29.663Z,4.38
2018-12-18T03:56:57.966Z,4.38
2018-12-18T03:59:26.557Z,4.38
2018-12-18T04:01:54.890Z,4.38
2018-12-18T04:07:05.344Z,4.37
2018-12-18T04:09:33.804Z,4.37
2018-12-18T04:14:53.326Z,4.31
2018-12-18T04:17:21.656Z,4.29
2018-12-18T04:19:50.170Z,4.32
2018-12-18T04:22:18.695Z,4.32
2018-12-18T04:24:47.028Z,4.33
2018-12-18T04:27:15.387Z,4.34
2018-12-18T04:29:43.718Z,4.33
2018-12-18T04:32:12.104Z,4.32
2018-12-18T04:34:43.151Z,4.33
2018-12-18T04:37:10.959Z,4.32
2018-12-18T04:39:39.407Z,4.30
2018-12-18T04:42:07.939Z,4.29
2018-12-18T04:44:36.298Z,4.28
2018-12-18T04:49:46.359Z,4.25
2018-12-18T04:52:14.735Z,4.25
2018-12-18T04:57:25.147Z,4.23
2018-12-18T04:59:54.424Z,4.21
2018-12-18T05:02:22.922Z,4.20
2018-12-18T05:04:51.335Z,4.19
2018-12-18T05:07:19.683Z,4.20
2018-12-18T05:09:48.081Z,4.20
2018-12-18T05:14:58.234Z,4.20
2018-12-18T05:17:26.552Z,4.21
2018-12-18T05:19:55.104Z,4.21
2018-12-18T05:22:23.463Z,4.21
2018-12-18T05:24:51.823Z,4.21
2018-12-18T05:27:20.137Z,4.22
2018-12-18T05:29:48.429Z,4.24
2018-12-18T05:34:59.295Z,4.25
2018-12-18T05:37:27.641Z,4.24
2018-12-18T05:39:56.179Z,4.23
2018-12-18T05:42:24.541Z,4.21
2018-12-18T05:47:34.868Z,4.19
2018-12-18T05:50:03.579Z,4.20
2018-12-18T05:55:13.765Z,4.18
2018-12-18T05:57:42.127Z,4.18
2018-12-18T06:00:11.254Z,4.17
2018-12-18T06:02:39.648Z,4.17
2018-12-18T06:07:49.955Z,4.13
2018-12-18T06:10:18.299Z,4.09
2018-12-18T06:12:46.629Z,4.07
2018-12-18T06:15:15.056Z,4.06
2018-12-18T06:17:43.563Z,4.05
2018-12-18T06:20:11.934Z,4.04
2018-12-18T06:22:40.282Z,4.02
2018-12-18T06:25:08.717Z,3.99
2018-12-18T06:27:38.359Z,3.98
2018-12-18T06:30:07.385Z,3.96
2018-12-18T06:35:17.615Z,3.95
2018-12-18T06:37:46.049Z,3.95
2018-12-18T06:40:14.425Z,3.94
2018-12-18T06:42:42.726Z,3.93
2018-12-18T06:45:11.043Z,3.95
2018-12-18T06:50:18.170Z,3.99
2018-12-18T06:52:46.583Z,3.99
2018-12-18T06:55:14.968Z,3.98
2018-12-18T06:57:43.359Z,3.99
2018-12-18T07:00:12.450Z,3.99
2018-12-18T07:02:40.772Z,4.00
2018-12-18T07:07:57.177Z,3.98
2018-12-18T07:10:22.603Z,3.97
2018-12-18T07:15:33.228Z,3.95
2018-12-18T07:18:01.572Z,3.95
2018-12-18T07:20:29.944Z,3.93
2018-12-18T07:22:58.441Z,3.96
2018-12-18T07:25:26.770Z,3.96
2018-12-18T07:30:37.805Z,3.97
2018-12-18T07:33:06.144Z,3.95
2018-12-18T07:38:17.443Z,3.93
2018-12-18T07:40:45.742Z,3.92
2018-12-18T07:43:14.014Z,3.91
2018-12-18T07:45:42.346Z,3.89
2018-12-18T07:48:10.673Z,3.90
2018-12-18T07:50:39.065Z,3.92
2018-12-18T07:53:07.463Z,3.91
2018-12-18T07:55:35.865Z,3.91
2018-12-18T07:58:04.404Z,3.91
2018-12-18T08:00:33.859Z,3.95
2018-12-18T08:03:02.295Z,4.02
2018-12-18T08:05:30.642Z,4.10
2018-12-18T08:07:59.031Z,4.19
2018-12-18T08:10:28.544Z,4.32
2018-12-18T08:12:56.916Z,4.47
2018-12-18T08:15:25.296Z,4.65
2018-12-18T08:17:54.408Z,4.86
2018-12-18T08:20:23.199Z,5.06
2018-12-18T08:22:51.488Z,5.29
2018-12-18T08:25:19.938Z,5.46
2018-12-18T08:27:48.306Z,5.57
2018-12-18T08:30:16.634Z,5.62
2018-12-18T08:32:44.941Z,5.66
2018-12-18T08:35:13.332Z,5.67
2018-12-18T08:37:41.687Z,5.70
2018-12-18T08:42:51.942Z,5.78
2018-12-18T08:45:20.317Z,5.77
2018-12-18T08:47:48.641Z,5.80
2018-12-18T08:50:16.990Z,5.76
2018-12-18T08:52:45.405Z,5.76
2018-12-18T08:55:13.839Z,5.78
2018-12-18T08:57:42.336Z,5.82
2018-12-18T09:00:10.935Z,5.92
2018-12-18T09:02:40.490Z,6.06
2018-12-18T09:05:09.123Z,6.22
2018-12-18T09:10:22.469Z,6.72
2018-12-18T09:12:50.823Z,7.00
2018-12-18T09:15:24.857Z,7.26
2018-12-18T09:17:54.037Z,7.55
2018-12-18T09:20:22.411Z,7.85
2018-12-18T09:22:50.806Z,8.15
2018-12-18T09:28:01.032Z,8.89
2018-12-18T09:30:29.531Z,9.29
2018-12-18T09:35:41.011Z,9.96
2018-12-18T09:38:15.242Z,10.21
2018-12-18T09:40:49.283Z,10.36
2018-12-18T09:43:23.172Z,10.50
2018-12-18T09:45:51.520Z,10.59
2018-12-18T09:51:01.639Z,10.74
2018-12-18T09:53:30.013Z,10.78
2018-12-18T09:58:40.148Z,11.14
2018-12-18T10:01:08.624Z,11.34
2018-12-18T10:03:36.946Z,11.53
2018-12-18T10:06:05.313Z,11.73
2018-12-18T10:11:15.492Z,12.16
2018-12-18T10:13:43.814Z,12.37
2018-12-18T10:16:12.099Z,12.68
2018-12-18T10:18:40.409Z,13.04
2018-12-18T10:23:50.585Z,13.72
2018-12-18T10:26:18.908Z,13.96
2018-12-18T10:28:47.252Z,14.28
2018-12-18T10:31:15.625Z,14.65
2018-12-18T10:33:43.939Z,14.95
2018-12-18T10:36:12.428Z,15.27
2018-12-18T10:38:40.765Z,15.67
2018-12-18T10:41:09.082Z,16.10
2018-12-18T10:43:37.390Z,16.47
2018-12-18T10:46:05.703Z,16.81
2018-12-18T10:48:34.060Z,17.22
2018-12-18T10:51:02.746Z,17.64
2018-12-18T10:53:31.107Z,18.09
2018-12-18T10:55:59.615Z,18.55
2018-12-18T10:58:27.962Z,18.94
2018-12-18T11:03:51.664Z,19.63
2018-12-18T11:06:19.989Z,19.95
2018-12-18T11:08:48.337Z,20.25
2018-12-18T11:11:16.647Z,20.51
2018-12-18T11:13:45.012Z,20.78
2018-12-18T11:16:13.355Z,20.98
2018-12-18T11:18:41.691Z,21.19
2018-12-18T11:21:10.019Z,21.26
2018-12-18T11:26:20.115Z,21.00
2018-12-18T11:28:48.477Z,20.83
2018-12-18T11:31:16.812Z,20.63
2018-12-18T11:33:45.273Z,20.27
2018-12-18T11:38:55.383Z,19.88
2018-12-18T11:41:23.684Z,19.92
2018-12-18T11:47:09.304Z,19.95
2018-12-18T11:49:37.797Z,20.00
2018-12-18T11:52:06.245Z,20.08
2018-12-18T11:54:34.595Z,20.09
2018-12-18T11:59:44.882Z,19.96
2018-12-18T12:02:13.221Z,20.02
2018-12-18T12:04:41.608Z,20.09
2018-12-18T12:07:09.960Z,20.25
2018-12-18T12:09:38.363Z,20.38
2018-12-18T12:12:06.858Z,20.49
2018-12-18T12:14:35.247Z,20.60
2018-12-18T12:17:03.820Z,20.66
2018-12-18T12:19:32.225Z,20.67
2018-12-18T12:22:00.714Z,20.68
2018-12-18T12:24:29.055Z,20.78
2018-12-18T12:28:02.008Z,20.89
2018-12-18T12:30:30.338Z,21.01
2018-12-18T12:32:58.681Z,21.03
2018-12-18T12:35:27.151Z,21.06
2018-12-18T12:37:56.933Z,21.12
2018-12-18T12:40:25.258Z,21.17
2018-12-18T12:42:53.583Z,21.23
2018-12-18T12:48:08.283Z,21.40
2018-12-18T12:50:36.797Z,21.52
2018-12-18T12:53:05.099Z,21.62
2018-12-18T12:58:15.138Z,21.94
2018-12-18T13:00:43.446Z,22.10
2018-12-18T13:03:11.703Z,22.20
2018-12-18T13:05:40.005Z,22.21
2018-12-18T13:10:50.074Z,22.15
2018-12-18T13:13:18.480Z,22.12
2018-12-18T13:20:56.307Z,22.10
2018-12-18T13:23:24.680Z,22.17
2018-12-18T13:25:53.021Z,22.20
2018-12-18T13:31:03.223Z,22.32
2018-12-18T13:33:32.533Z,22.35
2018-12-18T13:38:42.788Z,22.51
2018-12-18T13:41:11.111Z,22.60
2018-12-18T13:46:21.303Z,22.87
2018-12-18T13:48:49.651Z,22.96
2018-12-18T13:51:17.980Z,22.88
2018-12-18T13:53:46.301Z,22.70
2018-12-18T13:56:14.650Z,22.52
2018-12-18T13:58:42.955Z,22.38
2018-12-18T14:03:53.131Z,22.26
2018-12-18T14:06:21.438Z,22.13
2018-12-18T14:08:49.754Z,21.83
2018-12-18T14:11:18.109Z,21.56
2018-12-18T14:13:46.382Z,21.15
2018-12-18T14:16:14.695Z,20.54
2018-12-18T14:18:42.985Z,20.06
2018-12-18T14:23:53.326Z,19.36
2018-12-18T14:26:21.695Z,19.22
2018-12-18T14:28:50.056Z,19.12
2018-12-18T14:31:18.409Z,19.01
2018-12-18T14:33:46.883Z,18.92
2018-12-18T14:36:15.180Z,18.76
2018-12-18T14:38:43.556Z,18.47
2018-12-18T14:41:11.927Z,18.23
2018-12-18T14:46:22.345Z,17.76
2018-12-18T14:48:50.707Z,17.57
2018-12-18T14:51:19.065Z,17.40
2018-12-18T14:53:47.444Z,17.29
2018-12-18T14:58:57.693Z,17.09
2018-12-18T15:01:26.056Z,16.99
2018-12-18T15:03:54.506Z,16.87
2018-12-18T15:06:22.837Z,16.75
2018-12-18T15:08:51.199Z,16.61
2018-12-18T15:11:19.577Z,16.46
2018-12-18T15:13:47.858Z,16.29
2018-12-18T15:16:16.168Z,16.11
2018-12-18T15:18:44.637Z,15.92
2018-12-18T15:21:13.081Z,15.72
2018-12-18T15:23:42.467Z,15.55
2018-12-18T15:26:10.883Z,15.35
2018-12-18T15:28:39.296Z,15.17
2018-12-18T15:31:07.674Z,14.98
2018-12-18T15:33:36.366Z,14.78
2018-12-18T15:36:04.976Z,14.55
2018-12-18T15:38:33.365Z,14.35
2018-12-18T15:41:01.784Z,14.13
2018-12-18T15:43:30.115Z,13.93
2018-12-18T15:45:59.868Z,13.69
2018-12-18T15:48:28.177Z,13.46
2018-12-18T15:50:56.619Z,13.23
2018-12-18T15:53:25.169Z,13.03
2018-12-18T15:55:53.500Z,12.84
2018-12-18T15:58:21.779Z,12.66
2018-12-18T16:00:50.130Z,12.49
2018-12-18T16:03:18.396Z,12.28
2018-12-18T16:05:46.765Z,12.03
2018-12-18T16:08:15.046Z,11.80
2018-12-18T16:10:43.363Z,11.60
2018-12-18T16:13:11.653Z,11.42
2018-12-18T16:15:40.013Z,11.27
2018-12-18T16:18:08.328Z,11.11
2018-12-18T16:23:19.330Z,10.82
2018-12-18T16:25:47.795Z,10.69
2018-12-18T16:30:58.088Z,10.40
2018-12-18T16:33:26.739Z,10.27
2018-12-18T16:35:55.127Z,10.13
2018-12-18T16:38:23.498Z,10.03
2018-12-18T16:40:52.459Z,9.89
2018-12-18T16:43:20.797Z,9.76
2018-12-18T16:45:49.145Z,9.62
2018-12-18T16:51:03.988Z,9.38
2018-12-18T16:53:32.678Z,9.25
2018-12-18T16:58:43.150Z,8.99
2018-12-18T17:01:11.637Z,8.88
2018-12-18T17:03:40.353Z,8.79
2018-12-18T17:06:08.730Z,8.67
2018-12-18T17:08:37.160Z,8.58
2018-12-18T17:11:05.623Z,8.48
2018-12-18T17:13:34.441Z,8.39
2018-12-18T17:18:44.938Z,8.19
2018-12-18T17:21:13.799Z,8.08
2018-12-18T17:26:24.028Z,7.89
2018-12-18T17:28:53.363Z,7.78
2018-12-18T17:31:22.229Z,7.68
2018-12-18T17:33:51.247Z,7.61
2018-12-18T17:36:19.905Z,7.53
2018-12-18T17:38:48.331Z,7.46
2018-12-18T17:41:16.665Z,7.38
2018-12-18T17:43:45.755Z,7.30
2018-12-18T17:46:14.068Z,7.22
2018-12-18T17:48:42.493Z,7.15
2018-12-18T17:51:10.767Z,7.07
2018-12-18T17:53:39.288Z,7.00
2018-12-18T17:56:07.714Z,6.93
2018-12-18T17:58:36.107Z,6.84
2018-12-18T18:01:04.728Z,6.77
2018-12-18T18:03:33.170Z,6.70
2018-12-18T18:06:01.549Z,6.62
2018-12-18T18:08:29.901Z,6.56
2018-12-18T18:10:58.181Z,6.50
2018-12-18T18:13:26.761Z,6.45
2018-12-18T18:15:55.203Z,6.40
2018-12-18T18:18:23.599Z,6.33
2018-12-18T18:20:52.059Z,6.26
2018-12-18T18:23:20.676Z,6.17
2018-12-18T18:25:49.606Z,6.08
2018-12-18T18:30:59.770Z,5.91
2018-12-18T18:33:28.246Z,5.83
2018-12-18T18:38:38.589Z,5.68
2018-12-18T18:41:08.048Z,5.63
2018-12-18T18:43:36.514Z,5.58
2018-12-18T18:46:04.963Z,5.54
2018-12-18T18:48:33.396Z,5.49
2018-12-18T18:51:01.901Z,5.44
2018-12-18T18:53:30.387Z,5.40
2018-12-18T18:56:00.563Z,5.36
2018-12-18T18:58:29.191Z,5.32
2018-12-18T19:00:57.774Z,5.26
2018-12-18T19:06:08.339Z,5.19
2018-12-18T19:08:37.021Z,5.18
2018-12-18T19:11:05.615Z,5.14
2018-12-18T19:13:33.953Z,5.12
2018-12-18T19:18:44.416Z,5.06
2018-12-18T19:21:12.870Z,5.05
2018-12-18T19:23:41.588Z,5.03
2018-12-18T19:26:09.940Z,5.01
2018-12-18T19:28:38.412Z,4.98
2018-12-18T19:31:06.849Z,4.96
2018-12-18T19:33:36.953Z,4.93
2018-12-18T19:36:05.535Z,4.91
2018-12-18T19:38:33.928Z,4.89
2018-12-18T19:41:02.440Z,4.88
2018-12-18T19:43:30.873Z,4.86
2018-12-18T19:46:00.184Z,4.85
2018-12-18T19:48:29.183Z,4.83
2018-12-18T19:50:57.523Z,4.82
2018-12-18T19:53:25.859Z,4.81
2018-12-18T19:55:54.338Z,4.79
2018-12-18T19:58:22.995Z,4.75
2018-12-18T20:00:51.403Z,4.74
2018-12-18T20:03:19.793Z,4.70
2018-12-18T20:05:48.274Z,4.67
2018-12-18T20:08:17.250Z,4.66
2018-12-18T20:10:45.765Z,4.62
2018-12-18T20:13:14.342Z,4.62
2018-12-18T20:15:42.862Z,4.58
2018-12-18T20:18:11.627Z,4.59
2018-12-18T20:20:40.161Z,4.57
2018-12-18T20:23:08.927Z,4.55
2018-12-18T20:25:37.735Z,4.54
2018-12-18T20:30:50.833Z,4.52
2018-12-18T20:33:19.407Z,4.52
2018-12-18T20:35:48.096Z,4.51
2018-12-18T20:38:16.929Z,4.51
2018-12-18T20:40:46.510Z,4.51
2018-12-18T20:43:15.057Z,4.51
2018-12-18T20:45:43.670Z,4.52
2018-12-18T20:50:54.988Z,4.50
2018-12-18T20:53:23.707Z,4.49
2018-12-18T20:55:52.224Z,4.47
2018-12-18T20:58:20.601Z,4.45
2018-12-18T21:00:49.226Z,4.43
2018-12-18T21:03:17.823Z,4.38
2018-12-18T21:05:46.588Z,4.35
2018-12-18T21:10:57.651Z,4.29
2018-12-18T21:13:29.258Z,4.29
2018-12-18T21:15:58.165Z,4.25
2018-12-18T21:18:26.806Z,4.23
2018-12-18T21:20:55.772Z,4.24
2018-12-18T21:26:06.727Z,4.21
2018-12-18T21:28:35.452Z,4.20
2018-12-18T21:31:04.209Z,4.20
2018-12-18T21:35:57.788Z,4.18
2018-12-18T21:38:30.281Z,4.17
2018-12-18T21:40:57.613Z,4.17
2018-12-18T21:43:26.208Z,4.18
2018-12-18T21:48:37.851Z,4.20
2018-12-18T21:51:06.662Z,4.20
2018-12-18T21:56:17.594Z,4.21
2018-12-18T21:58:46.411Z,4.23
2018-12-18T22:01:15.317Z,4.24
2018-12-18T22:03:44.032Z,4.23
2018-12-18T22:08:55.796Z,4.20
2018-12-18T22:11:25.699Z,4.19
2018-12-18T22:16:37.035Z,4.21
2018-12-18T22:19:05.825Z,4.22
2018-12-18T22:21:34.479Z,4.21
2018-12-18T22:24:04.116Z,4.22
2018-12-18T22:26:32.560Z,4.22
2018-12-18T22:31:43.126Z,4.24
2018-12-18T22:34:11.735Z,4.25
2018-12-18T22:39:22.190Z,4.27
2018-12-18T22:41:50.662Z,4.28
2018-12-18T22:44:19.161Z,4.29
2018-12-18T22:46:47.614Z,4.31
2018-12-18T22:51:58.161Z,4.30
2018-12-18T22:54:26.725Z,4.31
2018-12-18T22:59:34.413Z,4.31
2018-12-18T23:02:09.266Z,4.33
2018-12-18T23:07:21.583Z,4.36
2018-12-18T23:09:49.923Z,4.41
2018-12-18T23:12:18.248Z,4.42
2018-12-18T23:14:46.544Z,4.45
2018-12-18T23:19:56.680Z,4.50
2018-12-18T23:22:25.036Z,4.51
2018-12-18T23:27:35.639Z,4.53
2018-12-18T23:30:05.294Z,4.52
2018-12-18T23:35:18.370Z,4.54
2018-12-18T23:37:46.718Z,4.56
2018-12-18T23:40:15.052Z,4.58
2018-12-18T23:42:43.373Z,4.57
2018-12-18T23:47:53.771Z,4.58
2018-12-18T23:50:22.117Z,4.59
2018-12-18T23:52:50.417Z,4.59
2018-12-18T23:55:18.795Z,4.58
